Terminal Aerodrome Forecast
Issued by NWS

Home | Current Version | Previous Version | Text Only | Print | Product List | Glossary On
Versions: 1 2 3 4 5 6 7 8 9 10 11 12 13 14 15 16 17 18 19 20 21
564
FTUS43 KFGF 232320
TAFDVL
TAF
KDVL 232320Z 2400/2424 28013KT P6SM SCT080
      TEMPO 2400/2401 BKN040
     FM241500 30017KT P6SM SCT250=

USA.gov is the U.S. government's official web portal to all federal, state and local government web resources and services.